Bookmark and Share
Track history (hours):
 

Mary Alice

More information available from US FCC via Universal Licensing System and Coast Guard Vessel Documentation Center.

Last reported at 2014-Apr-23 10:21 UTC. Time now 2014-Apr-23 13:16 UTC.
Position N 40°30' W 074°10'.

Length 21 m; draft 5 m.

Type: Towing. MMSI: 366744020.

NotesDate/timePositionNaut miles runAvg speedWind from/ knotsBaromVisibWave heightAir tempDewpointWater temp
2014-Apr-23 10:21N 40°30' W 074°10'2 2.7
2014-Apr-23 09:27N 40°30' W 074°07'0 0.4
2014-Apr-23 08:31N 40°30' W 074°06'1 1.0
2014-Apr-23 07:27N 40°30' W 074°08'3 2.6
2014-Apr-23 06:19N 40°29' W 074°04'3 3.1
2014-Apr-23 05:28N 40°30' W 074°07'3 2.2
2014-Apr-23 04:15N 40°29' W 074°04'2 2.8
2014-Apr-23 03:30N 40°30' W 074°07'5 2.6
2014-Apr-23 01:31N 40°29' W 073°60'8 5.9
2014-Apr-23 00:11N 40°24' W 073°53'5 5.9
2014-Apr-22 23:22N 40°27' W 073°56'5 5.8
2014-Apr-22 22:33N 40°28' W 074°02'3 2.3
2014-Apr-22 21:22N 40°30' W 074°06'1 0.7
2014-Apr-22 20:31N 40°29' W 074°05'1 1.1
2014-Apr-22 19:11N 40°30' W 074°07'2 2.8
2014-Apr-22 18:33N 40°30' W 074°09'4 3.9
2014-Apr-22 17:33N 40°29' W 074°04'2 2.2
2014-Apr-22 16:29N 40°30' W 074°07'2 1.8
2014-Apr-22 15:32N 40°29' W 074°05'0 0.1
2014-Apr-22 13:31N 40°29' W 074°05'2 1.5
2014-Apr-22 12:30N 40°30' W 074°07'3 2.9
2014-Apr-22 11:34N 40°29' W 074°03'5 4.8
2014-Apr-22 10:32N 40°28' W 073°57'6 5.7
2014-Apr-22 09:32N 40°23' W 073°52'6 5.4
2014-Apr-22 08:29N 40°28' W 073°57'6 6.4
2014-Apr-22 07:33N 40°29' W 074°04'3 2.9
2014-Apr-22 06:33N 40°30' W 074°08'0 0.5
2014-Apr-22 05:33N 40°30' W 074°07'1 0.8
2014-Apr-22 04:33N 40°30' W 074°06'1 0.6
2014-Apr-22 03:28N 40°30' W 074°06'0 0.5
2014-Apr-22 02:33N 40°29' W 074°05'1 1.4
2014-Apr-22 01:33N 40°30' W 074°07'5 4.6
2014-Apr-22 00:27N 40°29' W 074°00'6 3.0
2014-Apr-21 22:32N 40°26' W 073°54'7 6.1
2014-Apr-21 21:28N 40°29' W 074°02'5 5.1
2014-Apr-21 20:33N 40°30' W 074°08'1 0.7
2014-Apr-21 19:31N 40°30' W 074°08'0 0.0
2014-Apr-21 18:10N 40°30' W 074°08'0 0.2
2014-Apr-21 17:31N 40°30' W 074°08'0 0.4
2014-Apr-21 16:32N 40°30' W 074°08'1 0.8
2014-Apr-21 15:33N 40°30' W 074°09'1 0.6
2014-Apr-21 14:17N 40°30' W 074°08'1 0.6
2014-Apr-21 13:28N 40°30' W 074°08'0 0.1
2014-Apr-21 12:34N 40°30' W 074°08'0 0.3
2014-Apr-21 11:33N 40°30' W 074°08'1 0.8
2014-Apr-21 10:33N 40°30' W 074°07'1 0.7
2014-Apr-21 09:33N 40°30' W 074°08'0 0.1
2014-Apr-21 08:33N 40°30' W 074°08'4 3.9
2014-Apr-21 07:34N 40°29' W 074°03'5 5.3
2014-Apr-21 06:33N 40°27' W 073°56'5 4.6
2014-Apr-21 05:33N 40°24' W 073°52'6 6.0
2014-Apr-21 04:33N 40°28' W 073°58'6 6.1
2014-Apr-21 03:33N 40°29' W 074°06'2 2.0
2014-Apr-21 02:28N 40°30' W 074°08'1 0.5
2014-Apr-21 01:33N 40°30' W 074°09'0 0.3
2014-Apr-21 00:21N 40°30' W 074°08'0 0.3
2014-Apr-20 23:31N 40°30' W 074°08'0 0.2
2014-Apr-20 21:20N 40°30' W 074°08'4 4.6
2014-Apr-20 20:33N 40°29' W 074°03'10 4.8
2014-Apr-20 18:33N 40°24' W 073°52'1 0.7
2014-Apr-20 17:10N 40°23' W 073°52'8 4.8
2014-Apr-20 15:34N 40°29' W 073°59'6 5.8
2014-Apr-20 14:29N 40°30' W 074°07'1 0.8
2014-Apr-20 13:06N 40°30' W 074°09'0 0.7
2014-Apr-20 12:33N 40°30' W 074°09'0 0.2
2014-Apr-20 11:31N 40°30' W 074°09'0 0.2
2014-Apr-20 10:29N 40°30' W 074°09'0 0.0
2014-Apr-20 09:33N 40°30' W 074°09'0 0.2
2014-Apr-20 07:29N 40°30' W 074°08'0 0.2
2014-Apr-20 06:19N 40°30' W 074°08'7 4.1
2014-Apr-20 04:33N 40°37' W 074°12'5 5.5
2014-Apr-20 03:33N 40°41' W 074°08'2 2.2
2014-Apr-20 02:33N 40°39' W 074°09'4 3.6
2014-Apr-20 01:33N 40°40' W 074°04'3 3.3
2014-Apr-20 00:33N 40°41' W 074°01'3 3.3
2014-Apr-19 23:33N 40°44' W 073°58'0 0.1
2014-Apr-19 22:33N 40°44' W 073°58'0 0.1
2014-Apr-19 21:33N 40°44' W 073°58'2 2.4
2014-Apr-19 20:33N 40°42' W 073°60'7 7.4
2014-Apr-19 19:33N 40°39' W 074°08'3 3.5
2014-Apr-19 18:33N 40°42' W 074°09'0 0.0
2014-Apr-19 17:33N 40°42' W 074°09'0 0.0
2014-Apr-19 16:08N 40°42' W 074°09'0 0.0
2014-Apr-19 15:32N 40°42' W 074°09'0 0.0
2014-Apr-19 14:28N 40°42' W 074°09'0 0.0
2014-Apr-19 13:10N 40°42' W 074°09'0 0.1
2014-Apr-19 12:33N 40°42' W 074°09'0 0.1
2014-Apr-19 11:32N 40°42' W 074°09'0 0.0
2014-Apr-19 10:24N 40°42' W 074°09'0 0.0
2014-Apr-19 09:25N 40°42' W 074°09'0 0.0
2014-Apr-19 08:31N 40°42' W 074°09'0 0.0
2014-Apr-19 07:32N 40°42' W 074°09'0 0.0
2014-Apr-19 06:33N 40°42' W 074°09'0 0.0
2014-Apr-19 05:33N 40°42' W 074°09'0 0.0
2014-Apr-19 04:33N 40°42' W 074°09'0 0.0
2014-Apr-19 03:33N 40°42' W 074°09'0 0.0
2014-Apr-19 02:33N 40°42' W 074°09'0 0.0
2014-Apr-19 01:33N 40°42' W 074°09'0 0.0
2014-Apr-19 00:33N 40°42' W 074°09'0 0.0
2014-Apr-18 23:32N 40°42' W 074°09'0 0.0
2014-Apr-18 19:28N 40°42' W 074°09'0 0.0
2014-Apr-18 18:30N 40°42' W 074°09'0 0.0
2014-Apr-18 17:28N 40°42' W 074°09'0 0.0
2014-Apr-18 16:33N 40°42' W 074°09'0 0.0
2014-Apr-18 15:28N 40°42' W 074°09'0 0.1
2014-Apr-18 14:26N 40°42' W 074°09'0 0.0
2014-Apr-18 13:20N 40°42' W 074°09'0 0.0
2014-Apr-18 12:33N 40°42' W 074°09'3 3.1
2014-Apr-18 11:33N 40°39' W 074°09'4 4.1
2014-Apr-18 10:33N 40°41' W 074°04'4 4.3
2014-Apr-18 09:33N 40°38' W 074°09'3 2.6
2014-Apr-18 08:33N 40°41' W 074°08'1 0.3
2014-Apr-18 05:32N 40°42' W 074°09'0 0.0
2014-Apr-18 04:33N 40°42' W 074°09'0 0.0
2014-Apr-18 03:32N 40°42' W 074°09'0 0.0
2014-Apr-18 02:33N 40°42' W 074°09'0 0.0
2014-Apr-18 01:33N 40°42' W 074°09'0 0.0
2014-Apr-18 00:33N 40°42' W 074°09'0 0.0
2014-Apr-17 23:27N 40°42' W 074°09'0 0.0
2014-Apr-17 22:33N 40°42' W 074°09'0 0.0
2014-Apr-17 21:22N 40°42' W 074°09'0 0.0
2014-Apr-17 18:31N 40°42' W 074°09'0 0.0
2014-Apr-17 17:33N 40°42' W 074°09'0 0.0
2014-Apr-17 16:32N 40°42' W 074°09'0 0.0
2014-Apr-17 15:33N 40°42' W 074°09'0 0.0
2014-Apr-17 14:33N 40°42' W 074°09'0 0.0
2014-Apr-17 13:17N 40°42' W 074°09'0 0.0
2014-Apr-17 12:31N 40°42' W 074°09'0 0.0
2014-Apr-17 11:32N 40°42' W 074°09'0 0.0
2014-Apr-17 10:33N 40°42' W 074°09'0 0.0
2014-Apr-17 09:30N 40°42' W 074°09'0 0.0
2014-Apr-17 08:31N 40°42' W 074°09'0 0.0
2014-Apr-17 07:20N 40°42' W 074°09'0 0.0
2014-Apr-17 06:28N 40°42' W 074°09'0 0.0
2014-Apr-17 05:32N 40°42' W 074°09'0 0.0
2014-Apr-17 04:23N 40°42' W 074°09'0 0.0
2014-Apr-17 03:33N 40°42' W 074°09'0 0.0
2014-Apr-17 02:33N 40°42' W 074°09'0 0.0
2014-Apr-17 01:33N 40°42' W 074°09'0 0.0
2014-Apr-17 00:33N 40°42' W 074°09'0 0.0
2014-Apr-16 23:33N 40°42' W 074°09'0 0.0
2014-Apr-16 22:30N 40°42' W 074°09'0 0.0
2014-Apr-16 21:33N 40°42' W 074°09'0 0.0
2014-Apr-16 20:33N 40°42' W 074°09'0 0.0
2014-Apr-16 19:17N 40°42' W 074°09'0 0.0
2014-Apr-16 18:28N 40°42' W 074°09'0 0.0
2014-Apr-16 17:32N 40°42' W 074°09'0 0.0
2014-Apr-16 16:33N 40°42' W 074°09'0 0.0
2014-Apr-16 15:32N 40°42' W 074°09'0 0.0
2014-Apr-16 14:31N 40°42' W 074°09'0 0.0
2014-Apr-16 13:28N 40°42' W 074°09'0 0.0
2014-Apr-16 12:33N 40°42' W 074°09'0 0.0
2014-Apr-16 11:33N 40°42' W 074°09'0 0.0
2014-Apr-16 10:30N 40°42' W 074°09'0 0.0
2014-Apr-16 08:28N 40°42' W 074°09'0 0.0
2014-Apr-16 07:33N 40°42' W 074°09'0 0.0
2014-Apr-16 06:27N 40°42' W 074°09'0 0.0
2014-Apr-16 05:31N 40°42' W 074°09'0 0.0
2014-Apr-16 04:33N 40°42' W 074°09'0 0.0
2014-Apr-16 03:33N 40°42' W 074°09'0 0.0
2014-Apr-16 02:33N 40°42' W 074°09'0 0.0
2014-Apr-16 01:33N 40°42' W 074°09'0 0.0
2014-Apr-16 00:33N 40°42' W 074°09'0 0.0
2014-Apr-15 23:32N 40°42' W 074°09'0 0.0
2014-Apr-15 22:33N 40°42' W 074°09'0 0.0
2014-Apr-15 21:31N 40°42' W 074°09'0 0.0
2014-Apr-15 20:33N 40°42' W 074°09'0 0.0
2014-Apr-15 19:32N 40°42' W 074°09'0 0.0
2014-Apr-15 18:33N 40°42' W 074°09'0 0.0
2014-Apr-15 17:31N 40°42' W 074°09'0 0.0
2014-Apr-15 16:27N 40°42' W 074°09'0 0.0
2014-Apr-15 15:33N 40°42' W 074°09'0 0.0
2014-Apr-15 14:32N 40°42' W 074°09'0 0.0
2014-Apr-15 12:31N 40°42' W 074°09'0 0.0
2014-Apr-15 10:33N 40°42' W 074°09'0 0.0
2014-Apr-15 09:34N 40°42' W 074°09'0 0.0
2014-Apr-15 08:33N 40°42' W 074°09'0 0.0
2014-Apr-15 07:31N 40°42' W 074°09'0 0.0
2014-Apr-15 05:32N 40°42' W 074°09'0 0.0
2014-Apr-15 02:33N 40°42' W 074°09'0 0.0
2014-Apr-15 01:34N 40°42' W 074°09'0 0.0
2014-Apr-15 00:33N 40°42' W 074°09'4 0.6
2014-Apr-14 18:34N 40°39' W 074°07'0 0.0
2014-Apr-14 17:31N 40°39' W 074°07'0 0.0
2014-Apr-14 16:33N 40°39' W 074°07'0 0.0
2014-Apr-14 15:32N 40°39' W 074°07'4 0.9
2014-Apr-14 11:34N 40°42' W 074°09'0 0.0
2014-Apr-14 10:33N 40°42' W 074°09'0 0.0
2014-Apr-14 09:33N 40°42' W 074°09'0 0.0
2014-Apr-14 08:31N 40°42' W 074°09'0 0.0
2014-Apr-14 07:32N 40°42' W 074°09'0 0.0
2014-Apr-13 21:19N 40°42' W 074°09'0 0.0
2014-Apr-13 17:23N 40°42' W 074°09'0 0.1
2014-Apr-13 16:33N 40°42' W 074°09'1 1.4
2014-Apr-13 15:33N 40°40' W 074°08'10 5.1
2014-Apr-13 13:31N 40°30' W 074°12'6 6.7
2014-Apr-13 12:33N 40°29' W 074°04'7 7.1
2014-Apr-13 11:33N 40°26' W 073°55'2 1.6
2014-Apr-13 10:33N 40°26' W 073°53'  

Dump ship's entire track history

sailing weather and tide predictions

Mary Alice — WCX9570 — position and weather